Terminal Aerodrome Forecast
Issued by NWS Spokane, WA

Home | Current Version | Previous Version | Text Only | Print | Product List | Glossary On
Versions: 1 2 3 4 5 6 7 8 9 10 11 12 13 14 15 16 17 18 19 20 21 22 23 24 25 26 27 28 29 30 31 32 33 34 35
683
FTUS46 KOTX 291139
TAFGEG
TAF
KGEG 291139Z 2912/3012 17007KT P6SM FEW100
     FM292000 21013G19KT P6SM SCT050 BKN120 OVC200
     FM300100 20010KT P6SM OVC070
     FM300600 19010KT P6SM -RA SCT040 OVC060=

USA.gov is the U.S. government's official web portal to all federal, state and local government web resources and services.